Terminal Aerodrome Forecast
Issued by NWS Dodge City, KS

Home | Current Version | Previous Version | Graphics & Text | Print | Product List | Glossary Off
Versions: 1 2 3 4 5 6 7 8 9 10 11 12 13 14

000
FTUS43 KDDC 172331
TAFDDC
TAF
KDDC 172331Z 1800/1824 16014G22KT P6SM FEW200
     FM180800 18009KT P6SM FEW200 WS020/19040KT
     FM181100 18007KT P6SM FEW200
     FM181500 19016G26KT P6SM FEW200=

USA.gov is the U.S. government's official web portal to all federal, state and local government web resources and services.